Flight Track Log - Related Links

Times and Time Zones

All times are in EDT time to prevent confusion due to time zone crossing. See the SKQ221 flight status page for this flight to view local times or setup timezone preferences in your user account.

Time Position Orientation Groundspeed Altitude Reporting Facility
EDT Latitude Longitude Course Direction KTS MPH feet Rate Location/Type
Mon 06:56:13 PM 39.9972 -82.8958 306° West 103 119 1,100  Level Indianapolis Center
Mon 06:57:33 PM 40.0253 -82.9456 306° West 135 155 2,500 991 Climbing Indianapolis Center
Mon 06:58:02 PM 40.0378 -82.9636 312° West 130 150 2,900 818 Climbing Indianapolis Center
Mon 06:58:39 PM 40.0517 -82.9894 305° West 135 155 3,400 774 Climbing Indianapolis Center
Mon 06:59:04 PM 40.0606 -83.0039 309° West 134 154 3,700 982 Climbing Indianapolis Center
Mon 06:59:34 PM 40.0719 -83.0269 303° West 137 158 4,300 968 Climbing Indianapolis Center
Mon 07:00:06 PM 40.0836 -83.0436 312° West 135 155 4,700 787 Climbing Indianapolis Center
Mon 07:00:35 PM 40.0964 -83.0681 304° West 140 161 5,100 774 Climbing Indianapolis Center
Mon 07:01:08 PM 40.1075 -83.0861 309° West 139 160 5,500 627 Climbing Indianapolis Center
Mon 07:01:42 PM 40.1225 -83.1147 304° West 152 175 5,800 484 Climbing Indianapolis Center
Mon 07:02:10 PM 40.1333 -83.1308 311° West 147 169 6,000 179 Climbing Indianapolis Center
Mon 07:02:49 PM 40.1542 -83.1703 305° West 167 192 6,000  Level Indianapolis Center
Mon 07:03:12 PM 40.1608 -83.1797 313° West 156 180 6,000  Level Indianapolis Center
Mon 07:03:50 PM 40.1822 -83.2200 305° West 186 214 6,000  Level Indianapolis Center
Mon 07:04:14 PM 40.1950 -83.2408 309° West 169 194 6,000  Level Indianapolis Center
Mon 07:04:45 PM 40.2083 -83.2667 304° West 175 201 6,000  Level Indianapolis Center
Mon 07:05:16 PM 40.2231 -83.2928 306° West 173 199 6,000  Level Indianapolis Center
Mon 07:06:18 PM 40.2514 -83.3425 307° West 172 198 6,000  Level Indianapolis Center
Mon 07:07:20 PM 40.2800 -83.3939 306° West 173 199 6,000  Level Indianapolis Center
Mon 07:08:22 PM 40.3097 -83.4456 307° West 174 200 6,000  Level Indianapolis Center
Mon 07:09:24 PM 40.3389 -83.4978 306° West 175 201 6,000  Level Indianapolis Center
Mon 07:10:26 PM 40.3681 -83.5503 306° West 176 203 6,000  Level Indianapolis Center
Mon 07:11:28 PM 40.4006 -83.6094 306° West 174 200 6,000  Level Indianapolis Center
Mon 07:12:30 PM 40.4289 -83.6600 306° West 172 198 6,000  Level Indianapolis Center
Mon 07:13:32 PM 40.4564 -83.7106 306° West 170 196 6,000  Level Indianapolis Center
Mon 07:14:34 PM 40.4839 -83.7611 306° West 169 194 6,000  Level Indianapolis Center
Mon 07:15:36 PM 40.5131 -83.8122 307° West 171 197 6,000  Level Indianapolis Center
Mon 07:16:38 PM 40.5414 -83.8633 306° West 172 198 6,000  Level Indianapolis Center
Mon 07:17:40 PM 40.5692 -83.9147 305° West 171 197 6,000  Level Indianapolis Center
Mon 07:18:42 PM 40.6011 -83.9733 306° West 169 194 6,000  Level Indianapolis Center
Mon 07:19:44 PM 40.6292 -84.0244 306° West 170 196 6,000  Level Indianapolis Center
Mon 07:20:46 PM 40.6583 -84.0747 307° West 171 197 6,000  Level Indianapolis Center
Mon 07:21:48 PM 40.6861 -84.1269 305° West 171 197 6,000  Level Indianapolis Center
Mon 07:22:49 PM 40.7133 -84.1789 305° West 171 197 6,000  Level Indianapolis Center
Mon 07:23:51 PM 40.7417 -84.2300 306° West 172 198 6,000  Level Indianapolis Center
Mon 07:24:53 PM 40.7700 -84.2811 306° West 171 197 6,000  Level Indianapolis Center
Mon 07:25:55 PM 40.7981 -84.3331 306° West 171 197 6,000  Level Indianapolis Center
Mon 07:27:00 PM 40.8308 -84.3911 307° West 171 197 6,000  Level Chicago Center
Mon 07:28:02 PM 40.8592 -84.4436 306° West 173 199 6,000  Level Chicago Center
Mon 07:29:04 PM 40.8872 -84.4950 306° West 173 199 6,000  Level Chicago Center
Mon 07:30:06 PM 40.9150 -84.5461 306° West 172 198 6,000  Level Chicago Center
Mon 07:31:08 PM 40.9478 -84.6089 305° West 173 199 6,000  Level Chicago Center
Mon 07:32:10 PM 40.9756 -84.6589 306° West 171 197 6,000  Level Chicago Center
Mon 07:33:12 PM 41.0039 -84.7108 306° West 172 198 6,000  Level Chicago Center
Mon 07:34:14 PM 41.0317 -84.7636 305° West 174 200 6,000  Level Chicago Center
Mon 07:35:16 PM 41.0594 -84.8153 306° West 174 200 6,000  Level Chicago Center
Mon 07:36:18 PM 41.0869 -84.8689 304° West 174 200 6,000  Level Chicago Center
Mon 07:37:20 PM 41.1200 -84.9314 305° West 173 199 6,000  Level Chicago Center
Mon 07:38:22 PM 41.1472 -84.9831 305° West 173 199 6,000  Level Chicago Center
Mon 07:39:24 PM 41.1744 -85.0342 305° West 171 197 6,000  Level Chicago Center
Mon 07:40:26 PM 41.2019 -85.0858 305° West 171 197 6,000  Level Chicago Center
Mon 07:41:28 PM 41.2297 -85.1392 305° West 173 199 6,000  Level Chicago Center
Mon 07:42:30 PM 41.2569 -85.1908 305° West 172 198 6,000  Level Chicago Center
Mon 07:43:32 PM 41.2906 -85.2539 305° West 173 199 6,000  Level Chicago Center
Mon 07:44:34 PM 41.3175 -85.3050 305° West 172 198 6,000  Level Chicago Center
Mon 07:45:37 PM 41.3436 -85.3547 305° West 168 193 6,000  Level Chicago Center
Mon 07:46:38 PM 41.3692 -85.4042 305° West 165 190 6,000  Level Chicago Center
Mon 07:47:40 PM 41.3958 -85.4533 306° West 163 188 6,000  Level Chicago Center
Mon 07:48:42 PM 41.4211 -85.5025 304° West 162 186 6,000  Level Chicago Center
Mon 07:49:44 PM 41.4467 -85.5539 304° West 164 189 6,000  Level Chicago Center
Mon 07:50:46 PM 41.4731 -85.6050 305° West 165 190 6,000  Level Chicago Center
Mon 07:51:48 PM 41.5053 -85.6656 305° West 166 191 6,000  Level Chicago Center
Mon 07:52:50 PM 41.5308 -85.7169 304° West 166 191 6,000  Level Chicago Center
Mon 07:53:52 PM 41.5575 -85.7669 305° West 166 191 6,000  Level Chicago Center
Mon 07:54:54 PM 41.5842 -85.8181 305° West 167 192 6,000  Level Chicago Center
Mon 07:55:56 PM 41.6114 -85.8686 306° West 166 191 6,000  Level Chicago Center
Mon 07:56:58 PM 41.6369 -85.9197 304° West 166 191 6,000  Level Chicago Center
Mon 07:58:00 PM 41.6686 -85.9808 305° West 166 191 6,000  Level Chicago Center
Mon 07:59:02 PM 41.6942 -86.0317 304° West 166 191 6,000  Level Chicago Center
Mon 08:00:04 PM 41.7194 -86.0822 304° West 164 189 6,000  Level Chicago Center
Mon 08:01:06 PM 41.7464 -86.1328 306° West 167 192 6,000  Level Chicago Center
Mon 08:02:08 PM 41.7733 -86.1847 305° West 170 196 6,000  Level Chicago Center
Mon 08:03:10 PM 41.7992 -86.2364 304° West 168 193 6,000  Level Chicago Center
Mon 08:04:12 PM 41.8250 -86.2872 304° West 166 191 6,000  Level Chicago Center
Mon 08:05:14 PM 41.8564 -86.3500 304° West 168 193 6,000  Level Chicago Center
Mon 08:06:16 PM 41.8828 -86.4031 304° West 170 196 6,000  Level Chicago Center
Mon 08:07:18 PM 41.9097 -86.4542 305° West 168 193 6,000  Level Chicago Center
Mon 08:08:20 PM 41.9367 -86.5053 305° West 169 194 6,000  Level Chicago Center
Mon 08:09:22 PM 41.9628 -86.5575 304° West 168 193 6,000  Level Chicago Center
Mon 08:10:24 PM 41.9883 -86.6100 303° West 168 193 6,000 -97 Level Chicago Center
Mon 08:11:26 PM 42.0194 -86.6739 303° West 170 196 5,800 -339 Descending Chicago Center
Mon 08:12:28 PM 42.0486 -86.7303 305° West 180 207 5,300 -484 Descending Chicago Center
Mon 08:13:30 PM 42.0772 -86.7872 304° West 184 212 4,800 -484 Descending Chicago Center
Mon 08:14:32 PM 42.1061 -86.8444 304° West 185 213 4,300 -387 Descending Chicago Center
Mon 08:15:34 PM 42.1350 -86.9033 303° West 187 215 4,000 -145 Descending Chicago Center
Mon 08:16:36 PM 42.1556 -86.9594 296° West 175 201 4,000  Level Chicago Center
Mon 08:17:38 PM 42.1597 -87.0361 274° West 171 197 4,000 -48 Level Chicago Center
Mon 08:18:40 PM 42.1644 -87.1003 276° West 170 196 3,900 -48 Descending Chicago Center
Mon 08:19:42 PM 42.1692 -87.1639 276° West 172 198 3,900  Level Chicago Center
Mon 08:20:44 PM 42.1739 -87.2272 276° West 171 197 3,900  Level Chicago Center
Mon 08:21:46 PM 42.1778 -87.2897 275° West 169 194 3,900  Level Chicago Center
Mon 08:22:48 PM 42.1828 -87.3647 275° West 169 194 3,900  Level Chicago Center
Mon 08:23:51 PM 42.1861 -87.4264 274° West 167 192 3,900  Level Chicago Center
Mon 08:24:53 PM 42.1903 -87.4875 275° West 167 192 3,900 -339 Level Chicago Center
Mon 08:25:55 PM 42.1933 -87.5500 274° West 167 192 3,200 -484 Descending Chicago Center
Mon 08:26:57 PM 42.1989 -87.6169 276° West 172 198 2,900 -145 Descending Chicago Center
Mon 08:27:59 PM 42.2042 -87.6914 275° West 172 198 2,900  Level Chicago Center
Mon 08:29:01 PM 42.1922 -87.7467 254° West 165 190 2,900 -387 Level Chicago Center
Mon 08:30:03 PM 42.1753 -87.8044 248° West 163 188 2,100 -484 Descending Chicago Center
Mon 08:31:05 PM 42.1542 -87.8622 244° Southwest 169 194 1,900 -194 Descending Chicago Center
Mon 08:32:07 PM 42.1383 -87.9286 252° West 167 192 1,700 -194 Descending Chicago Center
Mon 08:34:00 PM 42.1143 -87.9015 166° South  Level Estimated

Login

Don't have an account? Register now (free) for customized features, flight alerts, and more!